createdAt,value
2018-11-04T00:02:25.760Z,16.33
2018-11-04T00:04:55.540Z,17.67
2018-11-04T00:07:26.196Z,18.33
2018-11-04T00:09:55.911Z,18.33
2018-11-04T00:12:26.030Z,17.67
2018-11-04T00:14:56.140Z,15.33
2018-11-04T00:17:27.656Z,17.00
2018-11-04T00:19:57.512Z,16.33
2018-11-04T00:22:27.042Z,17.00
2018-11-04T00:24:56.460Z,17.67
2018-11-04T00:27:25.864Z,19.00
2018-11-04T00:29:55.840Z,16.33
2018-11-04T00:32:25.414Z,17.00
2018-11-04T00:34:55.595Z,17.67
2018-11-04T00:37:25.361Z,17.00
2018-11-04T00:39:55.656Z,16.00
2018-11-04T00:42:25.061Z,17.67
2018-11-04T00:44:54.847Z,17.67
2018-11-04T00:47:24.271Z,16.33
2018-11-04T00:49:53.723Z,19.67
2018-11-04T00:52:25.355Z,17.67
2018-11-04T00:54:55.421Z,17.67
2018-11-04T00:57:25.037Z,19.00
2018-11-04T00:59:54.562Z,20.33
2018-11-04T01:02:24.088Z,17.00
2018-11-04T01:04:53.554Z,17.67
2018-11-04T01:07:26.202Z,17.00
2018-11-04T01:09:57.559Z,21.00
2018-11-04T01:12:27.292Z,17.00
2018-11-04T01:14:57.405Z,17.67
2018-11-04T01:17:26.925Z,18.67
2018-11-04T01:19:58.184Z,18.67
2018-11-04T01:22:33.675Z,15.33
2018-11-04T01:25:05.756Z,18.33
2018-11-04T01:27:35.431Z,20.33
2018-11-04T01:30:07.769Z,18.00
2018-11-04T01:32:37.773Z,20.00
2018-11-04T01:35:07.561Z,19.00
2018-11-04T01:37:37.216Z,17.67
2018-11-04T01:40:10.248Z,22.25
2018-11-04T01:42:41.703Z,19.67
2018-11-04T01:45:14.044Z,18.33
2018-11-04T01:47:44.777Z,20.00
2018-11-04T01:50:15.190Z,18.33
2018-11-04T01:52:45.375Z,21.75
2018-11-04T01:55:15.120Z,19.00
2018-11-04T01:57:45.296Z,19.00
2018-11-04T02:00:17.709Z,22.33
2018-11-04T02:02:48.595Z,19.00
2018-11-04T02:05:18.266Z,17.00
2018-11-04T02:07:50.408Z,16.33
2018-11-04T02:10:25.720Z,19.50
2018-11-04T02:12:56.490Z,17.00
2018-11-04T02:15:27.394Z,22.67
2018-11-04T02:17:56.768Z,19.67
2018-11-04T02:20:29.836Z,17.67
2018-11-04T02:23:00.624Z,20.33
2018-11-04T02:25:30.840Z,21.50
2018-11-04T02:28:02.037Z,22.67
2018-11-04T02:30:32.828Z,18.50
2018-11-04T02:33:02.224Z,19.33
2018-11-04T02:35:32.554Z,19.00
2018-11-04T02:38:02.785Z,19.00
2018-11-04T02:40:33.624Z,17.67
2018-11-04T02:43:03.715Z,17.67
2018-11-04T02:45:33.350Z,19.67
2018-11-04T02:48:02.788Z,19.67
2018-11-04T02:50:32.951Z,22.50
2018-11-04T02:53:02.430Z,19.67
2018-11-04T02:55:31.897Z,19.00
2018-11-04T02:58:02.739Z,21.00
2018-11-04T03:00:32.864Z,20.00
2018-11-04T03:03:03.109Z,20.50
2018-11-04T03:05:32.552Z,18.67
2018-11-04T03:08:03.851Z,21.00
2018-11-04T03:10:33.269Z,19.33
2018-11-04T03:13:02.981Z,19.00
2018-11-04T03:15:32.645Z,19.67
2018-11-04T03:18:02.104Z,20.67
2018-11-04T03:20:31.845Z,22.67
2018-11-04T03:23:01.226Z,24.33
2018-11-04T03:25:30.680Z,19.00
2018-11-04T03:28:00.107Z,20.00
2018-11-04T03:30:30.272Z,22.00
2018-11-04T03:32:59.677Z,21.33
2018-11-04T03:35:29.388Z,21.00
2018-11-04T03:37:58.788Z,19.00
2018-11-04T03:40:28.208Z,21.00
2018-11-04T03:42:57.693Z,17.67
2018-11-04T03:45:27.163Z,17.67
2018-11-04T03:47:56.611Z,22.67
2018-11-04T03:50:27.181Z,22.00
2018-11-04T03:53:00.698Z,22.67
2018-11-04T03:55:30.128Z,21.67
2018-11-04T03:58:00.064Z,17.67
2018-11-04T04:00:29.504Z,20.33
2018-11-04T04:02:58.974Z,22.00
2018-11-04T04:05:30.384Z,18.33
2018-11-04T04:07:59.780Z,21.67
2018-11-04T04:10:30.541Z,21.33
2018-11-04T04:13:00.765Z,22.00
2018-11-04T04:15:31.066Z,20.50
2018-11-04T04:18:00.506Z,21.67
2018-11-04T04:20:31.606Z,22.50
2018-11-04T04:23:01.056Z,24.67
2018-11-04T04:25:31.784Z,21.00
2018-11-04T04:28:03.900Z,21.25
2018-11-04T04:30:33.388Z,21.00
2018-11-04T04:33:03.598Z,22.75
2018-11-04T04:35:34.733Z,21.25
2018-11-04T04:38:04.887Z,21.50
2018-11-04T04:40:34.676Z,22.00
2018-11-04T04:43:07.624Z,21.50
2018-11-04T04:45:37.880Z,22.00
2018-11-04T04:48:07.373Z,24.00
2018-11-04T04:50:37.289Z,22.67
2018-11-04T04:53:07.628Z,20.50
2018-11-04T04:55:42.713Z,21.50
2018-11-04T04:58:13.068Z,22.00
2018-11-04T05:00:44.627Z,21.00
2018-11-04T05:03:14.056Z,19.67
2018-11-04T05:05:44.297Z,23.25
2018-11-04T05:08:14.520Z,20.33
2018-11-04T05:10:45.747Z,22.00
2018-11-04T05:13:15.228Z,25.33
2018-11-04T05:15:53.904Z,23.50
2018-11-04T05:18:24.052Z,22.00
2018-11-04T05:20:53.526Z,20.67
2018-11-04T05:23:23.303Z,22.00
2018-11-04T05:25:52.689Z,24.00
2018-11-04T05:28:22.909Z,23.75
2018-11-04T05:30:52.892Z,22.00
2018-11-04T05:33:22.688Z,23.00
2018-11-04T05:35:52.299Z,22.00
2018-11-04T05:38:21.771Z,23.67
2018-11-04T05:40:52.586Z,20.00
2018-11-04T05:43:22.971Z,20.33
2018-11-04T05:45:52.439Z,24.00
2018-11-04T05:48:21.982Z,23.33
2018-11-04T05:50:51.372Z,24.67
2018-11-04T05:53:21.300Z,21.00
2018-11-04T05:55:52.474Z,23.33
2018-11-04T05:58:22.768Z,24.50
2018-11-04T06:00:52.451Z,20.33
2018-11-04T06:05:55.504Z,25.00
2018-11-04T06:08:26.483Z,24.00
2018-11-04T06:10:59.137Z,24.00
2018-11-04T06:13:30.599Z,23.67
2018-11-04T06:16:00.791Z,21.75
2018-11-04T06:18:30.288Z,24.33
2018-11-04T06:21:01.351Z,19.00
2018-11-04T06:23:31.956Z,23.33
2018-11-04T06:26:01.337Z,21.00
2018-11-04T06:28:31.528Z,22.00
2018-11-04T06:31:01.005Z,22.00
2018-11-04T06:33:30.430Z,23.00
2018-11-04T06:35:59.832Z,20.67
2018-11-04T06:38:29.289Z,23.00
2018-11-04T06:41:00.645Z,25.00
2018-11-04T06:43:30.228Z,24.67
2018-11-04T06:45:59.644Z,25.33
2018-11-04T06:48:29.209Z,22.67
2018-11-04T06:50:58.665Z,25.33
2018-11-04T06:53:28.870Z,21.75
2018-11-04T06:55:58.543Z,24.00
2018-11-04T06:58:28.763Z,22.00
2018-11-04T07:00:58.167Z,22.00
2018-11-04T07:03:27.552Z,24.67
2018-11-04T07:06:00.916Z,22.00
2018-11-04T07:08:31.404Z,20.75
2018-11-04T07:11:00.922Z,23.00
2018-11-04T07:13:30.922Z,23.00
2018-11-04T07:16:00.353Z,21.00
2018-11-04T07:18:30.592Z,25.00
2018-11-04T07:21:00.826Z,24.00
2018-11-04T07:23:30.256Z,25.00
2018-11-04T07:26:01.288Z,24.50
2018-11-04T07:28:35.220Z,22.00
2018-11-04T07:31:05.545Z,21.00
2018-11-04T07:33:47.289Z,24.75
2018-11-04T07:36:22.923Z,25.33
2018-11-04T07:38:53.110Z,21.00
2018-11-04T07:41:26.248Z,21.75
2018-11-04T07:43:56.517Z,22.67
2018-11-04T07:46:25.988Z,25.00
2018-11-04T07:48:57.076Z,22.50
2018-11-04T07:51:27.422Z,24.00
2018-11-04T07:53:57.012Z,25.33
2018-11-04T07:56:27.133Z,23.33
2018-11-04T07:58:57.912Z,21.00
2018-11-04T08:01:28.104Z,22.67
2018-11-04T08:03:58.327Z,21.75
2018-11-04T08:06:30.394Z,24.00
2018-11-04T08:09:01.442Z,24.25
2018-11-04T08:11:31.656Z,22.00
2018-11-04T08:14:02.644Z,24.25
2018-11-04T08:16:33.374Z,23.33
2018-11-04T08:19:03.284Z,25.67
2018-11-04T08:21:33.449Z,24.67
2018-11-04T08:24:03.685Z,24.00
2018-11-04T08:26:41.420Z,22.00
2018-11-04T08:29:12.103Z,19.00
2018-11-04T08:31:42.268Z,23.67
2018-11-04T08:34:12.474Z,23.33
2018-11-04T08:36:42.277Z,23.67
2018-11-04T08:39:13.366Z,22.67
2018-11-04T08:41:43.845Z,24.00
2018-11-04T08:44:13.839Z,24.00
2018-11-04T08:46:44.312Z,22.00
2018-11-04T08:49:15.673Z,22.00
2018-11-04T08:51:45.884Z,22.00
2018-11-04T08:54:17.156Z,21.00
2018-11-04T08:56:50.405Z,22.00
2018-11-04T08:59:23.266Z,21.33
2018-11-04T09:01:53.279Z,22.00
2018-11-04T09:04:25.381Z,24.00
2018-11-04T09:07:00.836Z,26.33
2018-11-04T09:09:35.830Z,25.50
2018-11-04T09:12:07.559Z,25.00
2018-11-04T09:14:39.135Z,21.33
2018-11-04T09:17:12.029Z,23.00
2018-11-04T09:19:45.217Z,21.75
2018-11-04T09:22:17.999Z,24.00
2018-11-04T09:27:22.437Z,26.00
2018-11-04T09:29:54.183Z,25.00
2018-11-04T09:32:24.221Z,23.67
2018-11-04T09:34:53.870Z,25.33
2018-11-04T09:37:24.728Z,26.00
2018-11-04T09:42:32.449Z,25.33
2018-11-04T09:45:06.356Z,25.00
2018-11-04T09:47:41.161Z,20.67
2018-11-04T09:50:12.298Z,24.75
2018-11-04T09:52:42.499Z,24.75
2018-11-04T09:55:12.635Z,24.67
2018-11-04T09:57:42.046Z,22.67
2018-11-04T10:02:34.773Z,25.50
2018-11-04T10:05:06.056Z,26.50
2018-11-04T10:07:37.240Z,25.00
2018-11-04T10:10:15.420Z,22.33
2018-11-04T10:12:49.565Z,21.75
2018-11-04T10:15:20.342Z,25.33
2018-11-04T10:17:52.660Z,20.33
2018-11-04T10:20:24.313Z,23.67
2018-11-04T10:22:54.600Z,22.33
2018-11-04T10:25:24.903Z,22.67
2018-11-04T10:27:56.310Z,25.33
2018-11-04T10:30:26.565Z,23.00
2018-11-04T10:32:58.099Z,25.25
2018-11-04T10:35:30.444Z,25.50
2018-11-04T10:38:00.470Z,23.00
2018-11-04T10:40:30.672Z,23.67
2018-11-04T10:43:01.756Z,23.00
2018-11-04T10:45:32.627Z,21.25
2018-11-04T10:48:03.234Z,26.00
2018-11-04T10:50:33.256Z,27.67
2018-11-04T10:53:07.725Z,25.75
2018-11-04T10:55:47.207Z,22.33
2018-11-04T10:58:18.520Z,21.67
2018-11-04T11:00:55.413Z,23.67
2018-11-04T11:03:24.862Z,21.00
2018-11-04T11:05:55.959Z,25.00
2018-11-04T11:08:25.603Z,22.33
2018-11-04T11:10:58.757Z,21.33
2018-11-04T11:13:29.494Z,22.75
2018-11-04T11:15:59.973Z,22.67
2018-11-04T11:18:29.872Z,21.33
2018-11-04T11:21:00.874Z,22.00
2018-11-04T11:23:31.308Z,22.25
2018-11-04T11:26:02.672Z,26.25
2018-11-04T11:28:34.921Z,25.67
2018-11-04T11:31:06.154Z,20.00
2018-11-04T11:33:36.314Z,21.75
2018-11-04T11:36:06.339Z,22.33
2018-11-04T11:38:35.852Z,23.67
2018-11-04T11:41:05.356Z,23.67
2018-11-04T11:43:38.553Z,22.25
2018-11-04T11:46:08.618Z,22.00
2018-11-04T11:48:38.900Z,20.00
2018-11-04T11:51:14.583Z,21.75
2018-11-04T11:53:47.232Z,22.33
2018-11-04T11:56:18.617Z,20.67
2018-11-04T11:58:51.080Z,19.00
2018-11-04T12:01:20.509Z,20.00
2018-11-04T12:03:51.037Z,22.50
2018-11-04T12:06:22.561Z,21.25
2018-11-04T12:08:55.382Z,21.50
2018-11-04T12:11:29.012Z,20.00
2018-11-04T12:13:59.345Z,22.00
2018-11-04T12:16:30.964Z,21.00
2018-11-04T12:19:11.869Z,22.00
2018-11-04T12:21:41.265Z,22.00
2018-11-04T12:24:18.459Z,19.00
2018-11-04T12:26:48.484Z,19.00
2018-11-04T12:29:19.317Z,19.00
2018-11-04T12:31:49.779Z,21.75
2018-11-04T12:34:22.486Z,20.67
2018-11-04T12:36:55.444Z,22.00
2018-11-04T12:39:25.674Z,21.33
2018-11-04T12:42:01.714Z,21.67
2018-11-04T12:44:31.485Z,22.00
2018-11-04T12:47:01.826Z,22.00
2018-11-04T12:49:33.210Z,22.00
2018-11-04T12:52:05.294Z,19.00
2018-11-04T12:54:38.202Z,19.33
2018-11-04T12:57:07.732Z,19.67
2018-11-04T12:59:37.237Z,19.67
2018-11-04T13:02:08.749Z,20.67
2018-11-04T13:04:39.392Z,20.00
2018-11-04T13:07:09.932Z,18.67
2018-11-04T13:09:39.357Z,19.00
2018-11-04T13:12:12.747Z,19.33
2018-11-04T13:14:46.784Z,20.00
2018-11-04T13:17:17.529Z,17.67
2018-11-04T13:19:51.360Z,19.50
2018-11-04T13:22:22.533Z,20.00
2018-11-04T13:24:51.957Z,16.33
2018-11-04T13:27:22.809Z,18.33
2018-11-04T13:30:02.898Z,17.50
2018-11-04T13:32:34.177Z,19.00
2018-11-04T13:35:13.877Z,17.50
2018-11-04T13:37:43.592Z,18.00
2018-11-04T13:40:15.048Z,17.67
2018-11-04T13:42:45.220Z,17.67
2018-11-04T13:45:15.852Z,15.67
2018-11-04T13:47:46.405Z,16.67
2018-11-04T13:50:15.831Z,16.33
2018-11-04T13:52:53.453Z,16.00
2018-11-04T13:55:22.912Z,17.00
2018-11-04T13:57:52.300Z,16.00
2018-11-04T14:00:23.724Z,16.00
2018-11-04T14:02:54.230Z,17.00
2018-11-04T14:05:26.399Z,17.00
2018-11-04T14:07:58.734Z,14.67
2018-11-04T14:10:30.192Z,16.00
2018-11-04T14:12:59.802Z,17.00
2018-11-04T14:15:29.373Z,17.00
2018-11-04T14:17:58.744Z,15.67
2018-11-04T14:20:28.743Z,14.67
2018-11-04T14:23:00.348Z,15.67
2018-11-04T14:25:30.473Z,14.33
2018-11-04T14:28:00.234Z,14.33
2018-11-04T14:30:29.737Z,17.67
2018-11-04T14:32:59.606Z,13.00
2018-11-04T14:35:29.325Z,14.33
2018-11-04T14:37:59.549Z,15.00
2018-11-04T14:40:30.831Z,13.33
2018-11-04T14:43:05.269Z,15.33
2018-11-04T14:45:37.459Z,17.67
2018-11-04T14:48:12.795Z,14.67
2018-11-04T14:50:43.311Z,14.67
2018-11-04T14:53:12.761Z,14.33
2018-11-04T14:55:42.673Z,14.33
2018-11-04T14:58:14.216Z,12.67
2018-11-04T15:00:44.630Z,11.67
2018-11-04T15:03:15.213Z,12.67
2018-11-04T15:05:46.569Z,12.67
2018-11-04T15:08:18.065Z,11.67
2018-11-04T15:10:47.421Z,12.33
2018-11-04T15:13:17.526Z,12.33
2018-11-04T15:15:51.499Z,13.00
2018-11-04T15:18:20.882Z,10.33
2018-11-04T15:20:51.610Z,12.67
2018-11-04T15:23:21.581Z,10.00
2018-11-04T15:25:51.896Z,13.00
2018-11-04T15:28:23.297Z,10.00
2018-11-04T15:30:54.245Z,10.67
2018-11-04T15:33:26.356Z,11.67
2018-11-04T15:35:57.274Z,12.33
2018-11-04T15:38:27.307Z,9.00
2018-11-04T15:40:59.221Z,11.67
2018-11-04T15:43:28.521Z,11.00
2018-11-04T15:45:59.428Z,11.67
2018-11-04T15:48:29.067Z,10.00
2018-11-04T15:51:01.426Z,9.00
2018-11-04T15:53:31.441Z,10.00
2018-11-04T15:56:04.094Z,9.00
2018-11-04T15:58:33.756Z,11.00
2018-11-04T16:01:07.599Z,10.33
2018-11-04T16:03:39.518Z,10.00
2018-11-04T16:06:09.820Z,10.00
2018-11-04T16:08:40.671Z,10.00
2018-11-04T16:11:13.312Z,11.00
2018-11-04T16:13:44.409Z,12.33
2018-11-04T16:16:15.376Z,10.67
2018-11-04T16:18:47.582Z,11.67
2018-11-04T16:21:17.173Z,11.33
2018-11-04T16:23:47.682Z,8.67
2018-11-04T16:26:17.024Z,10.00
2018-11-04T16:28:47.938Z,11.33
2018-11-04T16:31:17.924Z,12.33
2018-11-04T16:33:47.297Z,10.00
2018-11-04T16:36:17.487Z,10.33
2018-11-04T16:38:50.698Z,10.00
2018-11-04T16:41:28.205Z,10.00
2018-11-04T16:43:57.628Z,10.00
2018-11-04T16:46:30.437Z,10.00
2018-11-04T16:49:02.032Z,9.67
2018-11-04T16:51:34.847Z,7.67
2018-11-04T16:54:04.808Z,10.00
2018-11-04T16:56:35.627Z,12.00
2018-11-04T16:59:05.746Z,10.00
2018-11-04T17:01:35.330Z,9.00
2018-11-04T17:04:05.469Z,9.00
2018-11-04T17:06:35.131Z,13.00
2018-11-04T17:09:06.443Z,12.00
2018-11-04T17:11:38.876Z,10.67
2018-11-04T17:14:20.266Z,10.00
2018-11-04T17:16:51.069Z,11.33
2018-11-04T17:19:21.623Z,13.67
2018-11-04T17:21:55.820Z,12.00
2018-11-04T17:24:30.600Z,9.67
2018-11-04T17:27:05.798Z,11.33
2018-11-04T17:29:36.561Z,12.00
2018-11-04T17:32:09.646Z,12.00
2018-11-04T17:34:41.520Z,12.00
2018-11-04T17:37:18.208Z,13.67
2018-11-04T17:39:49.239Z,12.00
2018-11-04T17:42:19.437Z,13.33
2018-11-04T17:44:52.614Z,11.33
2018-11-04T17:47:25.310Z,10.67
2018-11-04T17:49:57.691Z,13.67
2018-11-04T17:52:27.977Z,12.00
2018-11-04T17:54:59.380Z,12.00
2018-11-04T17:57:32.474Z,12.00
2018-11-04T18:00:05.632Z,10.00
2018-11-04T18:02:45.441Z,10.00
2018-11-04T18:05:16.044Z,13.67
2018-11-04T18:07:48.916Z,12.00
2018-11-04T18:10:19.029Z,12.67
2018-11-04T18:12:50.240Z,11.33
2018-11-04T18:15:22.657Z,12.00
2018-11-04T18:17:54.163Z,12.67
2018-11-04T18:20:28.444Z,10.67
2018-11-04T18:23:02.557Z,12.00
2018-11-04T18:25:31.952Z,11.33
2018-11-04T18:28:02.836Z,10.00
2018-11-04T18:30:32.558Z,12.00
2018-11-04T18:33:04.750Z,13.00
2018-11-04T18:35:34.991Z,12.00
2018-11-04T18:38:11.095Z,12.00
2018-11-04T18:40:42.702Z,9.67
2018-11-04T18:43:12.658Z,15.00
2018-11-04T18:45:42.445Z,10.67
2018-11-04T18:48:11.842Z,12.00
2018-11-04T18:50:41.926Z,10.00
2018-11-04T18:53:12.655Z,12.00
2018-11-04T18:55:42.036Z,10.00
2018-11-04T18:58:12.218Z,13.00
2018-11-04T19:00:43.732Z,10.67
2018-11-04T19:03:13.080Z,12.00
2018-11-04T19:05:43.799Z,13.67
2018-11-04T19:08:13.401Z,13.67
2018-11-04T19:10:49.940Z,10.00
2018-11-04T19:13:20.711Z,12.00
2018-11-04T19:15:51.840Z,13.33
2018-11-04T19:18:22.132Z,13.67
2018-11-04T19:20:52.525Z,13.00
2018-11-04T19:23:23.673Z,12.67
2018-11-04T19:25:55.959Z,12.33
2018-11-04T19:28:25.424Z,13.67
2018-11-04T19:30:57.826Z,13.00
2018-11-04T19:33:27.218Z,10.67
2018-11-04T19:35:58.095Z,13.33
2018-11-04T19:38:28.544Z,10.00
2018-11-04T19:40:58.465Z,12.67
2018-11-04T19:43:28.062Z,12.00
2018-11-04T19:45:59.273Z,13.67
2018-11-04T19:48:29.059Z,10.67
2018-11-04T19:51:01.156Z,12.00
2018-11-04T19:53:30.684Z,10.67
2018-11-04T19:56:00.046Z,11.33
2018-11-04T19:58:29.381Z,13.67
2018-11-04T20:01:02.357Z,10.67
2018-11-04T20:03:33.160Z,12.00
2018-11-04T20:06:02.783Z,12.00
2018-11-04T20:08:34.528Z,12.00
2018-11-04T20:11:06.562Z,10.67
2018-11-04T20:13:41.089Z,11.00
2018-11-04T20:16:17.585Z,11.67
2018-11-04T20:18:59.421Z,11.33
2018-11-04T20:21:28.753Z,12.00
2018-11-04T20:23:58.537Z,10.33
2018-11-04T20:26:28.392Z,11.33
2018-11-04T20:28:58.616Z,9.00
2018-11-04T20:31:35.945Z,11.67
2018-11-04T20:34:06.420Z,10.00
2018-11-04T20:36:36.616Z,9.33
2018-11-04T20:39:15.907Z,12.00
2018-11-04T20:41:47.422Z,10.00
2018-11-04T20:44:20.076Z,9.33
2018-11-04T20:46:53.222Z,11.33
2018-11-04T20:49:29.847Z,11.67
2018-11-04T20:52:00.654Z,12.33
2018-11-04T20:54:30.188Z,12.00
2018-11-04T20:57:06.140Z,12.00
2018-11-04T20:59:37.220Z,12.00
2018-11-04T21:02:06.709Z,11.00
2018-11-04T21:04:36.694Z,11.67
2018-11-04T21:07:07.196Z,10.67
2018-11-04T21:09:37.365Z,10.00
2018-11-04T21:12:08.240Z,10.67
2018-11-04T21:14:37.607Z,10.67
2018-11-04T21:17:08.868Z,10.67
2018-11-04T21:19:39.769Z,12.67
2018-11-04T21:22:12.960Z,12.00
2018-11-04T21:24:42.561Z,10.67
2018-11-04T21:27:13.510Z,12.00
2018-11-04T21:29:43.217Z,10.67
2018-11-04T21:32:12.477Z,11.67
2018-11-04T21:34:43.793Z,11.67
2018-11-04T21:37:14.152Z,12.00
2018-11-04T21:39:45.296Z,10.67
2018-11-04T21:42:14.836Z,10.67
2018-11-04T21:44:44.783Z,10.33
2018-11-04T21:47:15.356Z,10.67
2018-11-04T21:49:46.493Z,10.67
2018-11-04T21:52:15.925Z,12.00
2018-11-04T21:54:45.955Z,12.67
2018-11-04T21:57:17.636Z,9.00
2018-11-04T21:59:48.877Z,14.00
2018-11-04T22:02:18.377Z,14.00
2018-11-04T22:04:51.310Z,10.67
2018-11-04T22:07:21.813Z,13.67
2018-11-04T22:09:54.220Z,11.33
2018-11-04T22:12:24.279Z,12.00
2018-11-04T22:14:56.446Z,10.67
2018-11-04T22:17:26.838Z,12.33
2018-11-04T22:19:59.643Z,12.33
2018-11-04T22:22:29.018Z,11.67
2018-11-04T22:24:58.925Z,13.67
2018-11-04T22:27:28.378Z,13.00
2018-11-04T22:29:59.789Z,11.00
2018-11-04T22:32:29.143Z,12.00
2018-11-04T22:34:58.576Z,12.33
2018-11-04T22:37:29.149Z,10.67
2018-11-04T22:40:02.592Z,14.67
2018-11-04T22:42:33.681Z,10.67
2018-11-04T22:45:03.359Z,11.67
2018-11-04T22:47:32.682Z,10.00
2018-11-04T22:50:02.825Z,12.00
2018-11-04T22:52:32.169Z,12.00
2018-11-04T22:55:01.552Z,12.00
2018-11-04T22:57:32.428Z,13.33
2018-11-04T23:00:05.518Z,12.00
2018-11-04T23:02:36.302Z,10.00
2018-11-04T23:05:10.881Z,11.67
2018-11-04T23:07:44.612Z,12.00
2018-11-04T23:10:16.439Z,12.00
2018-11-04T23:12:47.169Z,13.33
2018-11-04T23:15:18.052Z,12.67
2018-11-04T23:17:47.447Z,12.00
2018-11-04T23:20:17.776Z,14.00
2018-11-04T23:22:49.622Z,14.00
2018-11-04T23:25:20.212Z,14.00
2018-11-04T23:27:50.764Z,12.00
2018-11-04T23:32:58.133Z,12.00
2018-11-04T23:35:28.185Z,11.33
2018-11-04T23:37:57.590Z,11.67
2018-11-04T23:40:28.620Z,14.00
2018-11-04T23:42:58.028Z,12.67
2018-11-04T23:45:27.436Z,10.33
2018-11-04T23:48:03.468Z,12.00
2018-11-04T23:50:32.963Z,11.00
2018-11-04T23:53:02.412Z,12.00
2018-11-04T23:55:31.805Z,11.67
2018-11-04T23:58:01.277Z,12.67
